Time;durP1;ratioP1;P1;durP2;ratioP2;P2;SDS_P1;SDS_P2;PMS_P1;PMS_P2;Temp;Humidity;BMP_temperature;BMP_pressure;BME280_temperature;BME280_humidity;BME280_pressure;Samples;Min_cycle;Max_cycle;Signal;HPM_P1;HPM_P2
2021/11/14 00:02:14;;;;;;;5.07;3.73;;;11.20;99.90;;;;;;5005105;28;20215;-82
2021/11/14 00:04:42;;;;;;;6.70;4.27;;;11.20;99.90;;;;;;5005967;28;20210;-81
2021/11/14 00:07:09;;;;;;;3.73;3.37;;;11.20;99.90;;;;;;5006304;28;20295;-79
2021/11/14 00:09:37;;;;;;;3.70;3.30;;;11.20;99.90;;;;;;5012826;28;20210;-81
2021/11/14 00:12:05;;;;;;;4.73;3.40;;;11.20;99.90;;;;;;5024596;28;20817;-81
2021/11/14 00:14:32;;;;;;;5.50;4.03;;;11.20;99.90;;;;;;5025777;28;20219;-82
2021/11/14 00:16:59;;;;;;;8.27;4.20;;;11.20;99.90;;;;;;5026381;28;20266;-79
2021/11/14 00:19:25;;;;;;;7.10;4.53;;;11.20;99.90;;;;;;5023347;28;20206;-81
2021/11/14 00:21:52;;;;;;;4.30;3.67;;;11.20;99.90;;;;;;5006600;28;20214;-79
2021/11/14 00:24:19;;;;;;;5.23;3.80;;;11.10;99.90;;;;;;5007291;28;20526;-82
2021/11/14 00:26:47;;;;;;;4.90;3.63;;;11.10;99.90;;;;;;5004155;28;20346;-82
2021/11/14 00:29:17;;;;;;;6.50;3.80;;;11.20;99.90;;;;;;5004765;28;20551;-81
2021/11/14 00:31:44;;;;;;;4.63;3.27;;;11.10;99.90;;;;;;5005607;28;20206;-81
2021/11/14 00:34:11;;;;;;;5.50;3.23;;;11.10;99.90;;;;;;5005306;28;20852;-81
2021/11/14 00:36:41;;;;;;;5.57;4.07;;;11.10;99.90;;;;;;5005103;28;20635;-80
2021/11/14 00:39:12;;;;;;;4.90;4.03;;;11.10;99.90;;;;;;5014367;28;20214;-79
2021/11/14 00:41:39;;;;;;;4.57;3.60;;;11.10;99.90;;;;;;5014320;28;20650;-80
2021/11/14 00:44:08;;;;;;;3.80;2.97;;;11.10;99.90;;;;;;5005341;28;20211;-80
2021/11/14 00:46:35;;;;;;;4.90;4.33;;;11.10;99.90;;;;;;5004801;28;20257;-80
2021/11/14 00:49:02;;;;;;;7.43;4.93;;;11.10;99.90;;;;;;5024761;28;20724;-83
2021/11/14 00:51:29;;;;;;;8.80;5.70;;;11.10;99.90;;;;;;5024268;28;20198;-80
2021/11/14 00:53:57;;;;;;;10.27;5.57;;;11.10;99.90;;;;;;5041634;28;20217;-80
2021/11/14 00:56:24;;;;;;;8.93;5.23;;;11.10;99.90;;;;;;5046107;28;20210;-80
2021/11/14 00:58:51;;;;;;;10.87;5.13;;;11.10;99.90;;;;;;5047168;28;20206;-81
2021/11/14 01:01:20;;;;;;;8.37;5.13;;;11.10;99.90;;;;;;5045459;28;20209;-80
2021/11/14 01:03:48;;;;;;;11.07;5.70;;;11.10;99.90;;;;;;5046294;28;20213;-82
2021/11/14 01:06:15;;;;;;;9.83;6.10;;;11.10;99.90;;;;;;5045011;28;20216;-80
2021/11/14 01:08:42;;;;;;;9.80;6.20;;;11.10;99.90;;;;;;5045062;28;20210;-81
2021/11/14 01:11:10;;;;;;;15.20;6.37;;;11.10;99.90;;;;;;5046095;28;20224;-80
2021/11/14 01:13:38;;;;;;;8.30;5.67;;;11.20;99.90;;;;;;5045630;28;20505;-80
2021/11/14 01:16:08;;;;;;;7.80;5.80;;;11.20;99.90;;;;;;5049227;28;20226;-81
2021/11/14 01:18:37;;;;;;;7.70;5.57;;;11.20;99.90;;;;;;5029890;28;20199;-81
2021/11/14 01:21:07;;;;;;;8.30;5.43;;;11.20;99.90;;;;;;5040175;28;20206;-81
2021/11/14 01:23:35;;;;;;;8.93;5.80;;;11.20;99.90;;;;;;5050576;28;20213;-80
2021/11/14 01:26:02;;;;;;;11.30;5.67;;;11.20;99.90;;;;;;5049889;28;20908;-79
2021/11/14 01:28:29;;;;;;;8.67;5.77;;;11.20;99.90;;;;;;5048907;28;20624;-80
2021/11/14 01:30:57;;;;;;;11.43;5.87;;;11.20;99.90;;;;;;5049802;28;20233;-79
2021/11/14 01:33:27;;;;;;;7.47;5.57;;;11.30;99.90;;;;;;5049065;28;20210;-79
2021/11/14 01:35:56;;;;;;;9.93;5.10;;;11.20;99.90;;;;;;5049150;28;20232;-78
2021/11/14 01:38:25;;;;;;;6.53;5.23;;;11.20;99.90;;;;;;5049240;28;20210;-79
2021/11/14 01:40:56;;;;;;;8.87;5.50;;;11.20;99.90;;;;;;5048636;28;20206;-80
2021/11/14 01:43:25;;;;;;;9.70;5.93;;;11.20;99.90;;;;;;5048874;28;20209;-80
2021/11/14 01:45:53;;;;;;;9.20;6.73;;;11.20;99.90;;;;;;5048284;28;20205;-79
2021/11/14 01:48:20;;;;;;;6.27;5.63;;;11.20;99.90;;;;;;5048663;28;20197;-79
2021/11/14 01:50:47;;;;;;;8.87;6.07;;;11.10;99.90;;;;;;5048266;28;20217;-80
2021/11/14 01:53:15;;;;;;;11.90;6.73;;;11.20;99.90;;;;;;5049176;28;20197;-81
2021/11/14 01:55:43;;;;;;;9.80;5.80;;;11.10;99.90;;;;;;5048395;28;20230;-81
2021/11/14 01:58:12;;;;;;;10.33;7.07;;;11.10;99.90;;;;;;5048355;28;20734;-79
2021/11/14 02:00:44;;;;;;;7.67;6.37;;;11.10;99.90;;;;;;5048009;28;20230;-80
2021/11/14 02:03:11;;;;;;;8.33;5.53;;;11.10;99.90;;;;;;5048401;28;20209;-79
2021/11/14 02:05:38;;;;;;;10.13;6.97;;;11.10;99.90;;;;;;5048483;28;20368;-81
2021/11/14 02:08:08;;;;;;;14.67;7.30;;;11.10;99.90;;;;;;5048649;28;20509;-78
2021/11/14 02:10:38;;;;;;;12.97;6.80;;;11.10;99.90;;;;;;5047868;28;20752;-79
2021/11/14 02:13:06;;;;;;;12.10;6.90;;;11.00;99.90;;;;;;5048769;28;20229;-80
2021/11/14 02:15:33;;;;;;;10.80;6.53;;;11.00;99.90;;;;;;5048506;28;20312;-79
2021/11/14 02:18:00;;;;;;;9.03;6.30;;;11.00;99.90;;;;;;5047858;28;20205;-77
2021/11/14 02:20:28;;;;;;;11.33;6.93;;;10.90;99.90;;;;;;5048671;28;20214;-80
2021/11/14 02:22:55;;;;;;;9.53;6.73;;;10.90;99.90;;;;;;5049543;28;20209;-80
2021/11/14 02:25:23;;;;;;;11.33;7.47;;;10.90;99.90;;;;;;5047325;28;20519;-80
2021/11/14 02:27:53;;;;;;;10.53;7.47;;;10.90;99.90;;;;;;5048530;28;20221;-81
2021/11/14 02:30:22;;;;;;;15.10;8.77;;;10.90;99.90;;;;;;5048042;28;20704;-81
2021/11/14 02:32:50;;;;;;;11.60;8.63;;;10.90;99.90;;;;;;5050388;28;20205;-81
2021/11/14 02:35:18;;;;;;;12.83;9.27;;;10.90;99.90;;;;;;5028969;28;20880;-80
2021/11/14 02:37:46;;;;;;;14.47;10.60;;;10.90;99.90;;;;;;5028988;28;20516;-78
2021/11/14 02:40:15;;;;;;;14.67;9.70;;;10.90;99.90;;;;;;5046798;28;20214;-80
2021/11/14 02:42:43;;;;;;;20.93;11.57;;;10.90;99.90;;;;;;5047787;28;20200;-80
2021/11/14 02:45:11;;;;;;;14.93;9.43;;;11.00;99.90;;;;;;5046433;28;20213;-80
2021/11/14 02:47:40;;;;;;;15.07;9.70;;;11.00;99.90;;;;;;5047923;28;20859;-79
2021/11/14 02:50:09;;;;;;;17.67;10.53;;;11.00;99.90;;;;;;5048227;28;20197;-79
2021/11/14 02:52:36;;;;;;;19.80;11.33;;;11.00;99.90;;;;;;5046891;28;20510;-80
2021/11/14 02:55:06;;;;;;;20.37;12.23;;;11.00;99.90;;;;;;5048230;28;20233;-79
2021/11/14 02:57:33;;;;;;;19.53;11.57;;;11.00;99.90;;;;;;5047813;28;20206;-79
2021/11/14 03:00:00;;;;;;;16.90;10.60;;;11.00;99.90;;;;;;5047097;28;20716;-81
2021/11/14 03:02:27;;;;;;;22.47;12.60;;;11.00;99.90;;;;;;5046368;28;20636;-79
2021/11/14 03:04:54;;;;;;;20.53;11.77;;;11.00;99.90;;;;;;5048079;28;20198;-80
2021/11/14 03:07:21;;;;;;;17.73;11.63;;;11.10;99.90;;;;;;5047421;28;20202;-78
2021/11/14 03:09:47;;;;;;;21.37;11.87;;;11.10;99.90;;;;;;5047525;28;20198;-78
2021/11/14 03:12:16;;;;;;;19.70;12.10;;;11.10;99.90;;;;;;5047189;28;20202;-80
2021/11/14 03:14:42;;;;;;;19.20;11.80;;;11.10;99.90;;;;;;5047361;28;20504;-79
2021/11/14 03:17:09;;;;;;;20.33;11.50;;;11.20;99.90;;;;;;5047747;28;20516;-81
2021/11/14 03:19:36;;;;;;;18.93;12.53;;;11.10;99.90;;;;;;5047301;28;20833;-82
2021/11/14 03:22:04;;;;;;;19.30;11.40;;;11.10;99.90;;;;;;5047267;28;20825;-82
2021/11/14 03:24:30;;;;;;;20.00;11.50;;;11.10;99.90;;;;;;5047359;28;20532;-80
2021/11/14 03:26:57;;;;;;;16.07;10.93;;;11.10;99.90;;;;;;5047678;28;20210;-80
2021/11/14 03:29:25;;;;;;;20.17;11.57;;;11.10;99.90;;;;;;5045052;28;20669;-80
2021/11/14 03:31:52;;;;;;;17.77;10.53;;;11.10;99.90;;;;;;5048354;28;20209;-81
2021/11/14 03:34:19;;;;;;;16.47;10.70;;;11.10;99.90;;;;;;5047888;28;20344;-81
2021/11/14 03:36:46;;;;;;;18.87;10.73;;;11.10;99.90;;;;;;5047966;28;20240;-81
2021/11/14 03:39:13;;;;;;;18.90;11.47;;;11.10;99.90;;;;;;5048639;28;20505;-80
2021/11/14 03:41:42;;;;;;;20.70;12.40;;;11.10;99.90;;;;;;5047287;28;20502;-82
2021/11/14 03:44:10;;;;;;;24.17;12.80;;;11.20;99.90;;;;;;5049021;28;20202;-81
2021/11/14 03:46:39;;;;;;;24.50;13.13;;;11.20;99.90;;;;;;5048778;28;20198;-82
2021/11/14 03:49:07;;;;;;;27.53;14.60;;;11.20;99.90;;;;;;5048658;28;20197;-78
2021/11/14 03:51:34;;;;;;;31.93;17.17;;;11.20;99.90;;;;;;5047769;28;20210;-81
2021/11/14 03:54:01;;;;;;;25.20;16.17;;;11.20;99.90;;;;;;5049198;28;20209;-82
2021/11/14 03:56:29;;;;;;;24.43;15.73;;;11.20;99.90;;;;;;5048923;28;20304;-82
2021/11/14 03:58:56;;;;;;;26.90;15.97;;;11.20;99.90;;;;;;5048848;28;20209;-80
2021/11/14 04:01:26;;;;;;;25.27;15.23;;;11.20;99.90;;;;;;5047336;28;20210;-82
2021/11/14 04:03:55;;;;;;;29.30;17.43;;;11.10;99.90;;;;;;5048056;28;20202;-81
2021/11/14 04:06:23;;;;;;;26.40;15.80;;;11.10;99.90;;;;;;5048668;28;20217;-82
2021/11/14 04:08:52;;;;;;;29.53;17.60;;;11.20;99.90;;;;;;5048990;28;20221;-82
2021/11/14 04:11:20;;;;;;;30.33;16.73;;;11.10;99.90;;;;;;5047772;28;20206;-82
2021/11/14 04:13:47;;;;;;;29.57;16.60;;;11.10;99.90;;;;;;5048286;28;20206;-82
2021/11/14 04:16:14;;;;;;;26.40;15.00;;;11.10;99.90;;;;;;5047134;28;20232;-82
2021/11/14 04:18:41;;;;;;;27.33;15.93;;;11.10;99.90;;;;;;5046827;28;20224;-81
2021/11/14 04:21:09;;;;;;;25.43;16.10;;;11.20;99.90;;;;;;5049287;28;20194;-82
2021/11/14 04:23:38;;;;;;;27.23;15.83;;;11.20;99.90;;;;;;5048766;28;20209;-81
2021/11/14 04:26:05;;;;;;;24.57;15.43;;;11.20;99.90;;;;;;5049105;28;20194;-82
2021/11/14 04:28:33;;;;;;;22.73;14.13;;;11.10;99.90;;;;;;5048951;28;20202;-82
2021/11/14 04:31:01;;;;;;;27.03;17.53;;;11.10;99.90;;;;;;5047672;28;20206;-82
2021/11/14 04:33:27;;;;;;;27.53;16.47;;;11.20;99.90;;;;;;5048474;28;20209;-82
2021/11/14 04:35:54;;;;;;;28.43;16.93;;;11.10;99.90;;;;;;5049017;28;20232;-82
2021/11/14 04:38:22;;;;;;;27.97;16.00;;;11.10;99.90;;;;;;5048065;28;20726;-80
2021/11/14 04:40:50;;;;;;;21.97;13.27;;;11.10;99.90;;;;;;5050005;28;20218;-81
2021/11/14 04:43:19;;;;;;;21.93;13.23;;;11.10;99.90;;;;;;5055214;28;20202;-81
2021/11/14 04:45:47;;;;;;;19.07;11.90;;;11.00;99.90;;;;;;5069361;28;20201;-81
2021/11/14 04:48:14;;;;;;;16.63;10.40;;;11.00;99.90;;;;;;5043754;28;20207;-82
2021/11/14 04:50:42;;;;;;;17.67;10.40;;;10.90;99.90;;;;;;5040720;28;20202;-82
2021/11/14 04:53:10;;;;;;;17.07;9.87;;;10.90;99.90;;;;;;5040014;28;20207;-81
2021/11/14 04:55:40;;;;;;;13.80;9.20;;;10.90;99.90;;;;;;5027383;28;20367;-80
2021/11/14 04:58:08;;;;;;;19.77;10.43;;;10.80;99.90;;;;;;5027714;28;20471;-81
2021/11/14 05:00:39;;;;;;;16.20;9.93;;;10.80;99.90;;;;;;5027185;28;20234;-81
2021/11/14 05:03:06;;;;;;;13.87;9.37;;;10.80;99.90;;;;;;5027748;28;20206;-82
2021/11/14 05:05:34;;;;;;;14.97;10.17;;;10.80;99.90;;;;;;5027288;28;20207;-82
2021/11/14 05:08:01;;;;;;;16.07;9.83;;;10.80;99.90;;;;;;5027439;28;20210;-81
2021/11/14 05:10:28;;;;;;;13.43;9.70;;;10.80;99.90;;;;;;5027054;28;20217;-80
2021/11/14 05:12:56;;;;;;;13.53;9.77;;;10.80;99.90;;;;;;5027603;28;20195;-81
2021/11/14 05:15:23;;;;;;;14.67;8.83;;;10.70;99.90;;;;;;5027072;28;20207;-81
2021/11/14 05:17:50;;;;;;;15.47;9.77;;;10.70;99.90;;;;;;5027241;28;20213;-80
2021/11/14 05:20:17;;;;;;;15.17;9.30;;;10.70;99.90;;;;;;5027170;28;20202;-82
2021/11/14 05:22:43;;;;;;;16.17;10.07;;;10.80;99.90;;;;;;5028073;28;20624;-81
2021/11/14 05:25:10;;;;;;;14.70;9.70;;;10.70;99.90;;;;;;5027997;28;20626;-81
2021/11/14 05:27:37;;;;;;;15.53;9.27;;;10.70;99.90;;;;;;5027455;28;20214;-80
2021/11/14 05:30:08;;;;;;;16.90;11.00;;;10.70;99.90;;;;;;5028224;28;20203;-81
2021/11/14 05:32:36;;;;;;;17.23;11.77;;;10.70;99.90;;;;;;5027366;28;20195;-81
2021/11/14 05:35:03;;;;;;;21.57;12.67;;;10.70;99.90;;;;;;5027543;28;20218;-81
2021/11/14 05:37:30;;;;;;;24.77;14.80;;;10.70;99.90;;;;;;5027829;28;20234;-82
2021/11/14 05:39:57;;;;;;;27.53;17.20;;;10.70;99.90;;;;;;5028222;28;20617;-80
2021/11/14 05:42:24;;;;;;;27.47;16.07;;;10.70;99.90;;;;;;5027306;28;20205;-82
2021/11/14 05:44:51;;;;;;;29.53;17.57;;;10.70;99.90;;;;;;5026126;28;20199;-81
2021/11/14 05:47:19;;;;;;;38.03;21.10;;;10.70;99.90;;;;;;5026135;28;20214;-81
2021/11/14 05:49:46;;;;;;;33.07;19.63;;;10.70;99.90;;;;;;5026252;28;20765;-82
2021/11/14 05:52:13;;;;;;;40.37;20.70;;;10.70;99.90;;;;;;5026003;28;20637;-83
2021/11/14 05:54:39;;;;;;;40.23;23.57;;;10.70;99.90;;;;;;5027132;28;20211;-82
2021/11/14 05:57:06;;;;;;;37.30;22.07;;;10.70;99.90;;;;;;5027139;28;20226;-81
2021/11/14 05:59:39;;;;;;;40.20;25.07;;;10.70;99.90;;;;;;5028426;28;20241;-81
2021/11/14 06:02:12;;;;;;;43.97;25.13;;;10.80;99.90;;;;;;5030571;28;20299;-82
2021/11/14 06:04:50;;;;;;;46.63;28.27;;;10.70;99.90;;;;;;5030373;28;20213;-82
2021/11/14 06:07:17;;;;;;;50.43;30.20;;;10.80;99.90;;;;;;5030527;28;20282;-82
2021/11/14 06:09:44;;;;;;;52.97;29.77;;;10.70;99.90;;;;;;5030620;28;20219;-80
2021/11/14 06:12:10;;;;;;;47.57;28.97;;;10.80;99.90;;;;;;5030480;28;20205;-81
2021/11/14 06:14:37;;;;;;;55.43;31.43;;;10.80;99.90;;;;;;5030294;28;20214;-81
2021/11/14 06:17:05;;;;;;;51.93;29.67;;;10.80;99.90;;;;;;5029711;28;20226;-81
2021/11/14 06:19:32;;;;;;;54.80;31.57;;;10.80;99.90;;;;;;5029626;28;20577;-80
2021/11/14 06:22:00;;;;;;;50.57;28.73;;;10.80;99.90;;;;;;5030279;28;20191;-81
2021/11/14 06:24:27;;;;;;;47.90;29.07;;;10.80;99.90;;;;;;5028706;28;20206;-80
2021/11/14 06:26:53;;;;;;;50.03;28.77;;;10.70;99.90;;;;;;5030051;28;20214;-84
2021/11/14 06:29:20;;;;;;;51.13;29.20;;;10.70;99.90;;;;;;5028730;28;20623;-81
2021/11/14 06:31:47;;;;;;;53.50;30.47;;;10.70;99.90;;;;;;5030371;28;20199;-82
2021/11/14 06:34:14;;;;;;;51.60;29.50;;;10.70;99.90;;;;;;5029528;28;20227;-82
2021/11/14 06:36:40;;;;;;;50.50;29.03;;;10.70;99.90;;;;;;5029931;28;20238;-83
2021/11/14 06:39:09;;;;;;;52.00;29.57;;;10.70;99.90;;;;;;5028728;28;20202;-81
2021/11/14 06:41:35;;;;;;;51.83;29.17;;;10.70;99.90;;;;;;5030000;28;20203;-81
2021/11/14 06:44:02;;;;;;;45.73;27.70;;;10.70;99.90;;;;;;5029414;28;20221;-82
2021/11/14 06:46:29;;;;;;;46.87;26.57;;;10.60;99.90;;;;;;5028654;28;20222;-81
2021/11/14 06:48:56;;;;;;;45.13;27.10;;;10.60;99.90;;;;;;5029978;28;20194;-81
2021/11/14 06:51:23;;;;;;;46.17;26.47;;;10.60;99.90;;;;;;5028034;28;20210;-82
2021/11/14 06:53:50;;;;;;;40.33;24.80;;;10.60;99.90;;;;;;5028534;28;20218;-81
2021/11/14 06:56:18;;;;;;;42.27;24.83;;;10.60;99.90;;;;;;5028106;28;20222;-80
2021/11/14 06:58:45;;;;;;;45.80;26.13;;;10.50;99.90;;;;;;5027735;28;20214;-80
2021/11/14 07:01:12;;;;;;;39.07;24.63;;;10.50;99.90;;;;;;5027981;28;20219;-80
2021/11/14 07:03:39;;;;;;;41.70;25.03;;;10.50;99.90;;;;;;5028624;28;20202;-81
2021/11/14 07:06:05;;;;;;;41.00;24.83;;;10.50;99.90;;;;;;5028168;28;20195;-80
2021/11/14 07:08:32;;;;;;;40.83;24.47;;;10.50;99.90;;;;;;5028939;28;20650;-81
2021/11/14 07:11:00;;;;;;;44.93;24.57;;;10.50;99.90;;;;;;5029164;28;20211;-81
2021/11/14 07:13:31;;;;;;;41.40;25.07;;;10.40;99.90;;;;;;5028312;28;20210;-82
2021/11/14 07:15:58;;;;;;;43.00;24.67;;;10.40;99.90;;;;;;5028279;28;20291;-82
2021/11/14 07:18:25;;;;;;;40.67;24.40;;;10.40;99.90;;;;;;5029291;28;20214;-82
2021/11/14 07:20:52;;;;;;;43.20;25.47;;;10.40;99.90;;;;;;5029912;28;20214;-81
2021/11/14 07:23:19;;;;;;;40.90;25.17;;;10.50;99.90;;;;;;5028851;28;20317;-81
2021/11/14 07:25:46;;;;;;;37.03;23.03;;;10.40;99.90;;;;;;5028867;28;20198;-81
2021/11/14 07:28:12;;;;;;;38.87;23.17;;;10.50;99.90;;;;;;5028479;28;20974;-81
2021/11/14 07:30:41;;;;;;;38.23;23.17;;;10.50;99.90;;;;;;5028309;28;20264;-82
2021/11/14 07:33:08;;;;;;;35.27;22.60;;;10.50;99.90;;;;;;5027988;28;20607;-81
2021/11/14 07:35:36;;;;;;;36.57;22.67;;;10.50;99.90;;;;;;5027362;28;20230;-81
2021/11/14 07:38:04;;;;;;;36.67;23.23;;;10.40;99.90;;;;;;5028351;28;20314;-81
2021/11/14 07:40:31;;;;;;;40.17;23.20;;;10.40;99.90;;;;;;5027000;28;20197;-82
2021/11/14 07:42:57;;;;;;;37.93;22.63;;;10.40;99.90;;;;;;5031304;28;20202;-82
2021/11/14 07:45:27;;;;;;;38.00;22.87;;;10.40;99.90;;;;;;5030368;28;20214;-82
2021/11/14 07:47:56;;;;;;;36.07;22.33;;;10.50;99.90;;;;;;5029735;28;20191;-82
2021/11/14 07:50:27;;;;;;;41.03;22.90;;;10.40;99.90;;;;;;5028952;28;20836;-81
2021/11/14 07:52:54;;;;;;;38.83;22.93;;;10.40;99.90;;;;;;5028844;28;20195;-79
2021/11/14 07:55:21;;;;;;;40.77;23.70;;;10.40;99.90;;;;;;5028640;28;20294;-80
2021/11/14 07:57:48;;;;;;;37.90;23.47;;;10.50;99.90;;;;;;5027956;28;20233;-81
2021/11/14 08:00:18;;;;;;;41.40;21.90;;;10.50;99.90;;;;;;5007411;28;20524;-81
2021/11/14 08:02:45;;;;;;;41.47;24.30;;;10.50;99.90;;;;;;5027446;28;20190;-82
2021/11/14 08:05:14;;;;;;;41.77;23.33;;;10.50;99.90;;;;;;5028510;28;20210;-81
2021/11/14 08:07:41;;;;;;;39.60;22.60;;;10.50;99.90;;;;;;5028825;28;20203;-80
2021/11/14 08:10:09;;;;;;;37.60;22.33;;;10.50;99.90;;;;;;5027877;28;20525;-81
2021/11/14 08:12:36;;;;;;;40.90;23.83;;;10.50;99.90;;;;;;5027456;28;20224;-82
2021/11/14 08:15:59;;;;;;;41.23;23.90;;;10.50;99.90;;;;;;5016716;28;20207;-80
2021/11/14 08:18:27;;;;;;;40.93;22.57;;;10.50;99.90;;;;;;5027523;28;20230;-81
2021/11/14 08:20:55;;;;;;;39.57;23.93;;;10.60;99.90;;;;;;5025854;28;20301;-80
2021/11/14 08:23:22;;;;;;;40.73;23.13;;;10.60;99.90;;;;;;5026095;28;20214;-81
2021/11/14 08:25:49;;;;;;;43.67;23.93;;;10.60;99.90;;;;;;5027213;28;20207;-81
2021/11/14 08:28:16;;;;;;;43.80;25.10;;;10.60;99.90;;;;;;5027316;28;20211;-82
2021/11/14 08:30:44;;;;;;;42.87;23.87;;;10.60;99.90;;;;;;5026515;28;20288;-81
2021/11/14 08:33:11;;;;;;;40.97;23.07;;;10.60;99.90;;;;;;5027684;28;20210;-82
2021/11/14 08:35:39;;;;;;;43.53;26.43;;;10.60;99.90;;;;;;5027113;28;20234;-81
2021/11/14 08:38:07;;;;;;;42.90;24.70;;;10.70;99.90;;;;;;5026652;28;20227;-81
2021/11/14 08:40:37;;;;;;;47.03;25.63;;;10.70;99.90;;;;;;5027228;28;20217;-80
2021/11/14 08:43:06;;;;;;;52.33;28.27;;;10.70;99.90;;;;;;5027267;28;20832;-80
2021/11/14 08:45:34;;;;;;;46.50;25.10;;;10.70;99.90;;;;;;5024643;28;20206;-81
2021/11/14 08:48:02;;;;;;;49.37;26.93;;;10.70;99.90;;;;;;5025771;28;20190;-80
2021/11/14 08:50:29;;;;;;;41.03;24.47;;;10.80;99.90;;;;;;5027316;28;20281;-81
2021/11/14 08:52:57;;;;;;;45.63;25.23;;;10.80;99.90;;;;;;5027144;28;20207;-81
2021/11/14 08:55:28;;;;;;;45.23;26.13;;;10.80;99.90;;;;;;5026803;28;20533;-79
2021/11/14 08:57:57;;;;;;;42.20;26.30;;;10.80;99.90;;;;;;5026257;28;20227;-79
2021/11/14 09:00:26;;;;;;;47.13;27.63;;;10.80;99.90;;;;;;5026143;28;20249;-80
2021/11/14 09:02:55;;;;;;;45.87;27.47;;;10.80;99.90;;;;;;5026603;28;20265;-80
2021/11/14 09:05:24;;;;;;;41.97;25.03;;;10.90;99.90;;;;;;5010038;28;20618;-79
2021/11/14 09:07:51;;;;;;;45.67;26.03;;;10.90;99.90;;;;;;5026839;28;20886;-81
2021/11/14 09:10:18;;;;;;;43.77;25.47;;;10.90;99.90;;;;;;5027342;28;20309;-81
2021/11/14 09:12:47;;;;;;;44.63;26.80;;;10.90;99.90;;;;;;5026977;28;20191;-81
2021/11/14 09:15:14;;;;;;;43.67;25.73;;;10.90;99.90;;;;;;5027368;28;20213;-79
2021/11/14 09:17:41;;;;;;;40.97;26.10;;;10.90;99.90;;;;;;5025592;28;20234;-80
2021/11/14 09:20:09;;;;;;;41.20;24.93;;;10.90;99.90;;;;;;5025647;28;20202;-80
2021/11/14 09:22:36;;;;;;;43.30;24.97;;;10.90;99.90;;;;;;5025333;28;20213;-80
2021/11/14 09:25:04;;;;;;;40.57;25.47;;;10.90;99.90;;;;;;5025872;28;20265;-79
2021/11/14 09:27:31;;;;;;;44.67;26.37;;;11.00;99.90;;;;;;5025204;28;20207;-80
2021/11/14 09:29:59;;;;;;;44.13;26.80;;;11.00;99.90;;;;;;5025811;28;20210;-80
2021/11/14 09:32:26;;;;;;;41.07;25.67;;;11.00;99.90;;;;;;5025927;28;20191;-80
2021/11/14 09:34:53;;;;;;;42.00;26.07;;;11.00;99.90;;;;;;5026785;28;20239;-81
2021/11/14 09:37:20;;;;;;;41.37;27.13;;;11.00;99.90;;;;;;5028605;28;20234;-80
2021/11/14 09:39:47;;;;;;;41.10;24.93;;;11.00;99.90;;;;;;5029510;28;20206;-80
2021/11/14 09:42:14;;;;;;;41.33;25.77;;;11.00;99.90;;;;;;5028878;28;20537;-79
2021/11/14 09:44:41;;;;;;;41.70;25.70;;;11.00;99.90;;;;;;5029898;28;20603;-80
2021/11/14 09:47:09;;;;;;;46.80;27.13;;;11.00;99.90;;;;;;5029519;28;20214;-82
2021/11/14 09:49:36;;;;;;;38.40;25.23;;;11.10;99.90;;;;;;5029713;28;20791;-81
2021/11/14 09:52:06;;;;;;;42.00;25.20;;;11.10;99.90;;;;;;5031242;28;20202;-80
2021/11/14 09:54:34;;;;;;;38.83;25.63;;;11.10;99.90;;;;;;5029604;28;20221;-81
2021/11/14 09:57:02;;;;;;;36.50;24.30;;;11.10;99.90;;;;;;5029945;28;20866;-81
2021/11/14 09:59:29;;;;;;;40.03;25.73;;;11.10;99.90;;;;;;5030103;28;20226;-80
2021/11/14 10:02:00;;;;;;;39.70;25.43;;;11.10;99.90;;;;;;5029957;28;20210;-80
2021/11/14 10:04:28;;;;;;;36.80;24.73;;;11.10;99.90;;;;;;5031856;28;20195;-78
2021/11/14 10:06:56;;;;;;;40.47;24.33;;;11.10;99.90;;;;;;5034881;28;20634;-80
2021/11/14 10:09:30;;;;;;;41.33;24.67;;;11.10;99.90;;;;;;5039296;28;20217;-79
2021/11/14 10:11:57;;;;;;;37.47;24.57;;;11.20;99.90;;;;;;5039260;28;20207;-79
2021/11/14 10:14:25;;;;;;;35.63;23.30;;;11.20;99.90;;;;;;5038007;28;20207;-80
2021/11/14 10:16:52;;;;;;;37.27;24.47;;;11.30;99.90;;;;;;5032789;28;20218;-79
2021/11/14 10:19:19;;;;;;;35.33;22.80;;;11.30;99.90;;;;;;5031842;28;20202;-79
2021/11/14 10:21:48;;;;;;;36.93;22.53;;;11.40;99.90;;;;;;5029739;28;20211;-81
2021/11/14 10:24:15;;;;;;;36.97;22.90;;;11.40;99.90;;;;;;5028602;28;20598;-80
2021/11/14 10:26:42;;;;;;;32.77;21.73;;;11.40;99.90;;;;;;5028653;28;20210;-78
2021/11/14 10:29:11;;;;;;;30.77;21.50;;;11.40;99.90;;;;;;5028663;28;20519;-79
2021/11/14 10:31:39;;;;;;;36.97;23.33;;;11.40;99.90;;;;;;5028464;28;20203;-80
2021/11/14 10:34:06;;;;;;;31.17;20.53;;;11.50;99.90;;;;;;5027842;28;20646;-78
2021/11/14 10:36:34;;;;;;;29.90;20.77;;;11.50;99.90;;;;;;5027104;28;20606;-78
2021/11/14 10:39:05;;;;;;;29.20;21.50;;;11.50;99.90;;;;;;5028555;28;20231;-79
2021/11/14 10:41:32;;;;;;;30.00;19.87;;;11.50;99.90;;;;;;5028146;28;20211;-81
2021/11/14 10:44:14;;;;;;;30.40;21.00;;;11.50;99.90;;;;;;5028261;28;20213;-80
2021/11/14 10:46:41;;;;;;;30.20;20.30;;;11.50;99.90;;;;;;5026571;28;20190;-80
2021/11/14 10:49:09;;;;;;;33.40;20.83;;;11.50;99.90;;;;;;5027132;28;20234;-79
2021/11/14 10:51:38;;;;;;;34.13;21.40;;;11.50;99.90;;;;;;5027980;28;20210;-80
2021/11/14 10:54:06;;;;;;;30.27;19.97;;;11.50;99.90;;;;;;5028729;28;20213;-81
2021/11/14 10:56:33;;;;;;;30.93;20.53;;;11.40;99.90;;;;;;5028049;28;20210;-80
2021/11/14 10:59:00;;;;;;;30.63;20.80;;;11.40;99.90;;;;;;5027607;28;20243;-81
2021/11/14 11:01:27;;;;;;;35.57;22.37;;;11.50;99.90;;;;;;5027735;28;20202;-80
2021/11/14 11:03:57;;;;;;;32.83;21.60;;;11.50;99.90;;;;;;5027822;28;20202;-79
2021/11/14 11:06:26;;;;;;;28.57;20.00;;;11.50;99.90;;;;;;5026592;28;20205;-80
2021/11/14 11:08:54;;;;;;;31.23;20.13;;;11.50;99.90;;;;;;5027551;28;20675;-80
2021/11/14 11:11:24;;;;;;;31.00;20.30;;;11.50;99.90;;;;;;5027315;28;20195;-77
2021/11/14 11:13:51;;;;;;;29.27;20.00;;;11.50;99.90;;;;;;5026955;28;20221;-80
2021/11/14 11:16:21;;;;;;;31.23;20.07;;;11.60;99.90;;;;;;5027523;28;20214;-78
2021/11/14 11:18:58;;;;;;;33.47;21.47;;;11.60;99.90;;;;;;5026942;28;20222;-78
2021/11/14 11:21:29;;;;;;;29.77;21.73;;;11.60;99.90;;;;;;5027714;28;20229;-80
2021/11/14 11:24:06;;;;;;;33.83;21.23;;;11.60;99.90;;;;;;5027224;28;20242;-79
2021/11/14 11:26:34;;;;;;;34.00;21.60;;;11.60;99.90;;;;;;5026985;28;20610;-78
2021/11/14 11:29:02;;;;;;;32.00;21.07;;;11.60;99.90;;;;;;5027611;28;20198;-78
2021/11/14 11:31:28;;;;;;;32.77;20.73;;;11.60;99.90;;;;;;5026793;28;20214;-78
2021/11/14 11:33:55;;;;;;;31.37;21.87;;;11.60;99.90;;;;;;5026754;28;20226;-78
2021/11/14 11:36:23;;;;;;;28.57;19.47;;;11.60;99.90;;;;;;5026766;28;20499;-79
2021/11/14 11:38:50;;;;;;;30.60;20.97;;;11.60;99.90;;;;;;5026821;28;20218;-78
2021/11/14 11:41:19;;;;;;;31.00;21.10;;;11.60;99.90;;;;;;5026850;28;20286;-79
2021/11/14 11:43:50;;;;;;;27.70;19.83;;;11.60;99.90;;;;;;5026973;28;20206;-79
2021/11/14 11:46:19;;;;;;;29.77;20.33;;;11.60;99.90;;;;;;5027650;28;20207;-78
2021/11/14 11:48:50;;;;;;;30.53;20.40;;;11.70;99.90;;;;;;5025910;28;20198;-78
2021/11/14 11:51:19;;;;;;;32.63;21.23;;;11.70;99.90;;;;;;5025646;28;20229;-80
2021/11/14 11:53:57;;;;;;;33.70;21.70;;;11.60;99.90;;;;;;5026005;28;20293;-78
2021/11/14 11:56:36;;;;;;;32.07;20.03;;;11.70;99.90;;;;;;5026902;28;20194;-79
2021/11/14 11:59:11;;;;;;;32.00;20.87;;;11.60;99.90;;;;;;5026091;28;20273;-79
2021/11/14 12:01:46;;;;;;;32.70;20.40;;;11.70;99.90;;;;;;5025960;28;20536;-78
2021/11/14 12:04:15;;;;;;;31.97;21.13;;;11.70;99.90;;;;;;5027307;28;20273;-80
2021/11/14 12:06:43;;;;;;;37.23;21.50;;;11.70;99.90;;;;;;5026924;28;20198;-78
2021/11/14 12:09:13;;;;;;;34.57;21.67;;;11.70;99.90;;;;;;5025611;28;20218;-80
2021/11/14 12:11:41;;;;;;;35.00;21.13;;;11.70;99.90;;;;;;5025859;28;20230;-79
2021/11/14 12:14:20;;;;;;;34.33;20.80;;;11.70;99.90;;;;;;5025524;28;20221;-77
2021/11/14 12:16:59;;;;;;;34.33;20.13;;;11.70;99.90;;;;;;5025417;28;20240;-79
2021/11/14 12:19:26;;;;;;;33.37;20.37;;;11.70;99.90;;;;;;5026126;28;20265;-79
2021/11/14 12:21:59;;;;;;;33.03;20.07;;;11.60;99.90;;;;;;5025344;28;20697;-79
2021/11/14 12:24:26;;;;;;;34.30;20.20;;;11.60;99.90;;;;;;5025643;28;20201;-79
2021/11/14 12:26:53;;;;;;;33.10;20.27;;;11.60;99.90;;;;;;5025238;28;20207;-79
2021/11/14 12:29:31;;;;;;;33.37;21.37;;;11.60;99.90;;;;;;5025277;28;20199;-79
2021/11/14 12:31:58;;;;;;;29.67;19.67;;;11.60;99.90;;;;;;5026073;28;20292;-78
2021/11/14 12:34:28;;;;;;;37.30;23.00;;;11.60;99.90;;;;;;5026011;28;20233;-78
2021/11/14 12:37:06;;;;;;;33.93;21.13;;;11.50;99.90;;;;;;5024961;28;20218;-78